Time;durP1;ratioP1;P1;durP2;ratioP2;P2;SDS_P1;SDS_P2;PMS_P1;PMS_P2;Temp;Humidity;BMP_temperature;BMP_pressure;BME280_temperature;BME280_humidity;BME280_pressure;Samples;Min_cycle;Max_cycle;Signal;HPM_P1;HPM_P2
2023/12/10 00:08:42;;;;;;;;;;;;;;;-1.59;100.00;98661.86;436058;1254;140241;-63
2023/12/10 00:18:48;;;;;;;50.60;33.80;;;;;;;-1.43;100.00;98661.91;435003;1255;125754;-63
2023/12/10 00:28:55;;;;;;;49.50;33.70;;;;;;;-1.30;100.00;98646.42;435622;1260;140038;-64
2023/12/10 00:39:02;;;;;;;50.70;33.60;;;;;;;-1.18;100.00;98646.57;432851;1259;141892;-66
2023/12/10 00:49:11;;;;;;;42.20;30.80;;;;;;;-1.06;100.00;98651.70;433237;1257;140230;-65
2023/12/10 00:59:17;;;;;;;43.10;30.00;;;;;;;-0.95;100.00;98634.84;433623;1257;140080;-63
2023/12/10 01:09:24;;;;;;;41.90;29.30;;;;;;;-0.86;100.00;98627.86;432670;1257;173804;-63
2023/12/10 01:19:30;;;;;;;35.20;26.80;;;;;;;-0.79;100.00;98623.01;433392;1260;140155;-64
2023/12/10 01:29:38;;;;;;;36.50;26.20;;;;;;;-0.75;100.00;98614.09;435184;1256;141249;-64
2023/12/10 01:39:44;;;;;;;43.20;30.30;;;;;;;-0.75;100.00;98607.90;434560;1256;140042;-63
2023/12/10 01:49:51;;;;;;;37.40;26.80;;;;;;;-0.81;100.00;98594.17;432684;1258;140068;-65
2023/12/10 01:59:56;;;;;;;;;;;;;;;-1.03;100.00;98581.52;432807;1258;140072;-63
2023/12/10 02:10:05;;;;;;;43.00;28.10;;;;;;;-1.39;100.00;98570.96;433142;1254;127506;-64
2023/12/10 02:20:13;;;;;;;39.60;29.50;;;;;;;-1.69;100.00;98569.15;435527;1259;140646;-63
2023/12/10 02:30:20;;;;;;;49.40;31.90;;;;;;;-1.92;100.00;98557.30;444817;1256;140292;-63
2023/12/10 02:40:26;;;;;;;50.40;33.10;;;;;;;-2.06;100.00;98544.15;438014;1255;140607;-64
2023/12/10 02:50:33;;;;;;;52.60;33.70;;;;;;;-2.17;100.00;98539.84;435195;1259;140089;-65
2023/12/10 03:00:39;;;;;;;49.40;36.50;;;;;;;-2.24;100.00;98537.27;434690;1255;141114;-65
2023/12/10 03:10:45;;;;;;;55.60;34.90;;;;;;;-2.31;100.00;98534.06;439480;1254;139903;-64
2023/12/10 03:20:52;;;;;;;49.90;35.00;;;;;;;-2.49;100.00;98535.92;434289;1257;140619;-64
2023/12/10 03:31:00;;;;;;;51.80;35.00;;;;;;;-2.73;100.00;98544.77;432826;1257;140660;-64
2023/12/10 03:41:07;;;;;;;49.90;34.50;;;;;;;-2.93;100.00;98551.65;436714;1257;139811;-64
2023/12/10 03:51:13;;;;;;;53.80;36.70;;;;;;;-3.12;100.00;98543.73;440201;1256;140105;-63
2023/12/10 04:01:19;;;;;;;52.30;35.00;;;;;;;-3.24;100.00;98529.13;432564;1254;141851;-64
2023/12/10 04:11:26;;;;;;;56.60;38.40;;;;;;;-3.26;100.00;98526.94;443702;1254;141713;-63
2023/12/10 04:21:33;;;;;;;52.80;33.70;;;;;;;-3.19;100.00;98518.40;437723;1255;141461;-63
2023/12/10 04:31:40;;;;;;;49.60;34.20;;;;;;;-3.14;100.00;98536.94;432542;1255;140155;-63
2023/12/10 04:41:46;;;;;;;46.10;33.30;;;;;;;-3.16;100.00;98528.60;434931;1257;140263;-64
2023/12/10 04:51:53;;;;;;;41.10;31.50;;;;;;;-3.11;100.00;98526.92;433254;1257;141071;-64
2023/12/10 05:01:59;;;;;;;44.30;28.90;;;;;;;-3.04;100.00;98523.14;433024;1255;140380;-63
2023/12/10 05:12:06;;;;;;;46.70;29.90;;;;;;;-3.02;100.00;98517.09;435054;1255;141125;-63
2023/12/10 05:22:13;;;;;;;47.20;29.50;;;;;;;-3.07;100.00;98533.48;437134;1256;140977;-63
2023/12/10 05:32:20;;;;;;;37.00;27.60;;;;;;;-3.10;100.00;98549.00;440063;1256;140306;-64
2023/12/10 05:42:27;;;;;;;45.10;29.10;;;;;;;-3.10;100.00;98538.37;433377;1257;140473;-63
2023/12/10 05:52:34;;;;;;;35.90;24.20;;;;;;;-3.11;100.00;98545.92;437158;1254;140261;-64
2023/12/10 06:02:41;;;;;;;35.30;25.80;;;;;;;-3.15;100.00;98559.37;434302;1260;140201;-63
2023/12/10 06:12:49;;;;;;;30.60;22.00;;;;;;;-3.18;100.00;98570.42;434592;1258;141561;-64
2023/12/10 06:22:56;;;;;;;33.40;23.80;;;;;;;-3.22;100.00;98582.14;435514;1257;140007;-64
2023/12/10 06:33:02;;;;;;;34.50;24.80;;;;;;;-3.23;100.00;98592.62;445095;1256;140612;-64
2023/12/10 06:43:09;;;;;;;30.10;22.00;;;;;;;-3.16;100.00;98590.73;435366;1260;141176;-63
2023/12/10 06:53:16;;;;;;;28.70;21.70;;;;;;;-3.08;100.00;98602.36;433142;1255;140055;-64
2023/12/10 07:03:22;;;;;;;31.00;22.00;;;;;;;-3.04;100.00;98618.85;433831;1255;141038;-63
2023/12/10 07:13:29;;;;;;;29.00;21.10;;;;;;;-2.98;100.00;98628.31;437247;1255;140291;-64
2023/12/10 07:23:36;;;;;;;30.90;21.20;;;;;;;-2.92;100.00;98626.64;432759;1255;140001;-64
2023/12/10 07:33:42;;;;;;;32.20;21.00;;;;;;;-2.82;100.00;98635.98;434827;1259;142210;-64
2023/12/10 07:43:49;;;;;;;29.80;20.60;;;;;;;-2.73;100.00;98640.57;437431;1259;141024;-64
2023/12/10 07:53:56;;;;;;;31.50;21.70;;;;;;;-2.63;100.00;98643.73;434085;1260;140326;-65
2023/12/10 08:04:03;;;;;;;30.90;21.50;;;;;;;-2.54;100.00;98651.56;433273;1255;140362;-63
2023/12/10 08:14:10;;;;;;;26.70;18.90;;;;;;;-2.48;100.00;98649.70;433651;1255;140186;-64
2023/12/10 08:24:17;;;;;;;33.40;22.60;;;;;;;-2.42;100.00;98648.84;433061;1254;140769;-65
2023/12/10 08:34:23;;;;;;;34.10;21.30;;;;;;;-2.32;100.00;98655.12;433716;1259;140816;-64
2023/12/10 08:44:30;;;;;;;28.90;22.60;;;;;;;-2.20;100.00;98658.06;438254;1254;140364;-63
2023/12/10 08:54:36;;;;;;;27.20;20.00;;;;;;;-1.99;100.00;98651.84;433436;1258;140746;-64
2023/12/10 09:04:43;;;;;;;26.10;20.70;;;;;;;-1.83;100.00;98661.18;432969;1257;142387;-63
2023/12/10 09:14:49;;;;;;;29.60;19.00;;;;;;;-1.77;100.00;98667.00;433875;1257;139654;-64
2023/12/10 09:24:57;;;;;;;29.40;21.10;;;;;;;-1.72;100.00;98667.04;432709;1255;139963;-64
2023/12/10 09:35:04;;;;;;;29.60;20.40;;;;;;;-1.63;100.00;98669.02;433028;1255;141093;-64
2023/12/10 09:45:12;;;;;;;34.40;24.10;;;;;;;-1.53;100.00;98669.75;436996;1254;142333;-64
2023/12/10 09:55:18;;;;;;;33.10;21.50;;;;;;;-1.38;100.00;98667.25;433353;1255;140382;-64
2023/12/10 10:05:25;;;;;;;36.70;23.50;;;;;;;-1.21;100.00;98662.62;432725;1259;141717;-64
2023/12/10 10:15:32;;;;;;;32.80;21.30;;;;;;;-1.01;100.00;98664.09;444628;1254;139715;-63
2023/12/10 10:25:39;;;;;;;28.20;21.30;;;;;;;-0.80;100.00;98664.45;437194;1259;140693;-63
2023/12/10 10:35:46;;;;;;;32.90;24.00;;;;;;;-0.56;100.00;98656.61;434504;1260;140713;-64
2023/12/10 10:45:54;;;;;;;32.90;23.20;;;;;;;-0.21;100.00;98649.41;436803;1255;140075;-64
2023/12/10 10:56:01;;;;;;;35.10;24.90;;;;;;;0.15;100.00;98645.05;432624;1260;141857;-64
2023/12/10 11:06:10;;;;;;;38.80;26.90;;;;;;;0.19;100.00;98643.02;433966;1260;140150;-76
2023/12/10 11:16:16;;;;;;;33.30;24.30;;;;;;;0.24;100.00;98640.41;438552;1259;141517;-75
2023/12/10 11:26:23;;;;;;;39.00;27.00;;;;;;;0.38;100.00;98649.89;438575;1259;140416;-75
2023/12/10 11:36:29;;;;;;;37.40;26.70;;;;;;;0.50;100.00;98656.66;438700;1260;139544;-75
2023/12/10 11:46:46;;;;;;;33.00;23.50;;;;;;;0.59;100.00;98663.91;438503;1260;141226;-76
2023/12/10 11:56:58;;;;;;;32.20;22.50;;;;;;;0.66;100.00;98656.77;438744;1260;140689;-75
2023/12/10 12:07:04;;;;;;;31.20;23.10;;;;;;;0.72;100.00;98659.83;438993;1255;139397;-72
2023/12/10 12:17:13;;;;;;;27.70;22.50;;;;;;;0.83;100.00;98669.58;438913;1255;140014;-75
2023/12/10 12:27:20;;;;;;;30.20;23.30;;;;;;;0.81;100.00;98672.05;438968;1255;139588;-75
2023/12/10 12:37:26;;;;;;;31.50;22.70;;;;;;;0.73;100.00;98674.92;438757;1259;139817;-75
2023/12/10 12:47:33;;;;;;;31.30;23.80;;;;;;;0.67;100.00;98673.05;438667;1260;139351;-76
2023/12/10 12:57:41;;;;;;;30.50;24.80;;;;;;;0.59;100.00;98677.53;438888;1258;139774;-74
2023/12/10 13:07:47;;;;;;;34.60;24.70;;;;;;;0.54;100.00;98680.13;438503;1257;149658;-68
2023/12/10 13:17:54;;;;;;;30.30;23.10;;;;;;;0.44;100.00;98687.56;432477;1257;139647;-69
2023/12/10 13:28:01;;;;;;;35.60;26.30;;;;;;;0.29;100.00;98689.11;434035;1258;140153;-69
2023/12/10 13:38:07;;;;;;;35.60;26.10;;;;;;;0.18;100.00;98684.86;436033;1254;140134;-70
2023/12/10 13:48:12;;;;;;;;;;;;;;;0.12;100.00;98689.91;433939;1259;139909;-69
2023/12/10 13:58:19;;;;;;;42.90;28.80;;;;;;;0.05;100.00;98693.05;435571;1257;126405;-68
2023/12/10 14:08:25;;;;;;;45.40;29.80;;;;;;;-0.00;100.00;98701.69;437818;1259;140729;-69
2023/12/10 14:18:32;;;;;;;36.60;27.40;;;;;;;-0.02;100.00;98702.61;441259;1259;139875;-69
2023/12/10 14:28:37;;;;;;;;;;;;;;;-0.03;100.00;98705.39;433515;1258;140663;-69
2023/12/10 14:38:43;;;;;;;31.70;23.80;;;;;;;-0.04;100.00;98701.29;433159;1260;126190;-69
2023/12/10 14:48:49;;;;;;;38.30;28.00;;;;;;;-0.07;100.00;98708.44;432839;1260;140703;-69
2023/12/10 14:58:56;;;;;;;38.10;26.60;;;;;;;-0.08;100.00;98717.44;434354;1259;140423;-69
2023/12/10 15:09:03;;;;;;;34.30;24.40;;;;;;;-0.09;100.00;98716.60;433624;1260;140036;-69
2023/12/10 15:19:10;;;;;;;34.00;25.20;;;;;;;-0.09;100.00;98722.63;448296;1259;139732;-69
2023/12/10 15:29:17;;;;;;;35.40;27.00;;;;;;;-0.08;100.00;98727.74;437908;1260;140786;-69
2023/12/10 15:39:23;;;;;;;37.00;26.90;;;;;;;-0.06;100.00;98725.98;434508;1260;140875;-69
2023/12/10 15:49:30;;;;;;;35.70;25.70;;;;;;;-0.02;100.00;98731.70;435123;1260;140126;-69
2023/12/10 15:59:37;;;;;;;34.50;26.50;;;;;;;-0.01;100.00;98735.94;436124;1259;140140;-69
2023/12/10 16:09:44;;;;;;;30.80;24.00;;;;;;;0.02;100.00;98730.01;436642;1260;139941;-68
2023/12/10 16:19:50;;;;;;;32.30;23.90;;;;;;;0.05;100.00;98740.39;433145;1260;140309;-69
2023/12/10 16:29:57;;;;;;;33.10;26.40;;;;;;;0.08;100.00;98745.96;436627;1260;139912;-69
2023/12/10 16:40:04;;;;;;;38.10;28.10;;;;;;;0.16;100.00;98744.52;433391;1260;141717;-69
2023/12/10 16:50:13;;;;;;;32.90;23.90;;;;;;;0.25;100.00;98742.28;433301;1257;140639;-69
2023/12/10 17:00:21;;;;;;;30.50;23.20;;;;;;;0.33;100.00;98737.01;438244;1259;140077;-69
2023/12/10 17:10:28;;;;;;;28.70;22.10;;;;;;;0.42;100.00;98727.58;435467;1260;140443;-69
2023/12/10 17:20:35;;;;;;;25.30;20.20;;;;;;;0.49;100.00;98731.08;436356;1257;141657;-69
2023/12/10 17:30:39;;;;;;;;;;;;;;;0.54;100.00;98733.88;434247;1258;139664;-69
2023/12/10 17:40:47;;;;;;;28.30;20.60;;;;;;;0.58;100.00;98729.74;434363;1260;126631;-70
2023/12/10 17:50:53;;;;;;;30.30;21.10;;;;;;;0.62;100.00;98722.70;433568;1259;140104;-69
2023/12/10 18:01:08;;;;;;;28.10;21.20;;;;;;;0.66;100.00;98719.30;433373;1260;139922;-69
2023/12/10 18:11:17;;;;;;;28.70;18.70;;;;;;;0.71;100.00;98716.03;435675;1260;140929;-69
2023/12/10 18:21:25;;;;;;;23.90;17.50;;;;;;;0.76;100.00;98717.38;432808;1260;140760;-69
2023/12/10 18:31:32;;;;;;;31.10;21.00;;;;;;;0.79;100.00;98700.18;434044;1260;140729;-69
2023/12/10 18:41:38;;;;;;;28.40;21.10;;;;;;;0.86;100.00;98688.91;441627;1257;139896;-69
2023/12/10 18:51:45;;;;;;;29.80;19.20;;;;;;;0.94;100.00;98682.71;438137;1259;139898;-70
2023/12/10 19:01:52;;;;;;;25.10;18.90;;;;;;;1.01;100.00;98674.37;433804;1260;140262;-70
2023/12/10 19:11:57;;;;;;;;;;;;;;;1.05;100.00;98664.56;435248;1254;140023;-70
2023/12/10 19:22:04;;;;;;;19.40;15.80;;;;;;;1.08;100.00;98655.45;433588;1254;126666;-69
2023/12/10 19:32:10;;;;;;;24.30;16.80;;;;;;;1.10;100.00;98639.52;440110;1254;140307;-70
2023/12/10 19:42:17;;;;;;;25.70;18.20;;;;;;;1.16;100.00;98633.29;437102;1255;140233;-70
2023/12/10 19:52:23;;;;;;;24.00;15.80;;;;;;;1.21;100.00;98635.30;438536;1254;140295;-69
2023/12/10 20:02:30;;;;;;;25.00;17.00;;;;;;;1.24;100.00;98635.00;433507;1260;142272;-69
2023/12/10 20:12:36;;;;;;;25.00;15.60;;;;;;;1.28;100.00;98637.28;434484;1257;140080;-69
2023/12/10 20:22:44;;;;;;;29.40;17.80;;;;;;;1.32;100.00;98630.02;433540;1257;140654;-68
2023/12/10 20:32:51;;;;;;;24.90;16.00;;;;;;;1.37;100.00;98624.48;440364;1254;140446;-70
2023/12/10 20:42:57;;;;;;;21.10;13.10;;;;;;;1.41;100.00;98615.86;434286;1254;142425;-69
2023/12/10 20:53:04;;;;;;;26.50;15.40;;;;;;;1.47;100.00;98604.23;439741;1254;140056;-69
2023/12/10 21:03:15;;;;;;;21.30;14.70;;;;;;;1.51;100.00;98596.80;436337;1255;140277;-69
2023/12/10 21:13:22;;;;;;;18.80;13.60;;;;;;;1.55;100.00;98586.66;432943;1257;140548;-70
2023/12/10 21:23:28;;;;;;;18.50;13.50;;;;;;;1.54;100.00;98579.62;433786;1259;141166;-70
2023/12/10 21:33:35;;;;;;;20.30;13.70;;;;;;;1.53;100.00;98574.15;434945;1254;140020;-70
2023/12/10 21:43:41;;;;;;;18.70;13.50;;;;;;;1.54;100.00;98566.84;434489;1254;142614;-69
2023/12/10 21:53:48;;;;;;;18.50;13.10;;;;;;;1.52;100.00;98556.77;433637;1258;139718;-69
2023/12/10 22:03:54;;;;;;;23.10;15.50;;;;;;;1.51;100.00;98541.96;433962;1254;139830;-69
2023/12/10 22:14:01;;;;;;;19.40;13.80;;;;;;;1.51;100.00;98540.58;433019;1259;141074;-69
2023/12/10 22:24:08;;;;;;;20.60;14.00;;;;;;;1.54;100.00;98522.87;433805;1255;140644;-69
2023/12/10 22:34:14;;;;;;;19.90;13.70;;;;;;;1.55;100.00;98507.80;434670;1255;141343;-69
2023/12/10 22:44:21;;;;;;;18.70;12.20;;;;;;;1.56;100.00;98497.08;436527;1254;140093;-69
2023/12/10 22:54:27;;;;;;;15.40;11.50;;;;;;;1.58;100.00;98494.07;434076;1257;140553;-69
2023/12/10 23:04:34;;;;;;;18.70;12.60;;;;;;;1.61;100.00;98489.77;434427;1255;144083;-69
2023/12/10 23:14:41;;;;;;;15.80;11.70;;;;;;;1.64;100.00;98484.28;438472;1255;140003;-70
2023/12/10 23:24:47;;;;;;;18.60;12.60;;;;;;;1.68;100.00;98477.57;433623;1259;139750;-69
2023/12/10 23:34:56;;;;;;;15.60;12.30;;;;;;;1.72;100.00;98470.48;433863;1260;140726;-70
2023/12/10 23:45:02;;;;;;;15.70;9.70;;;;;;;1.76;100.00;98456.33;434733;1254;140192;-69
2023/12/10 23:55:10;;;;;;;16.60;10.30;;;;;;;1.80;100.00;98443.70;434070;1258;141029;-70
